sensor_id;sensor_type;location;lat;lon;timestamp;temperature;humidity
7046;DHT22;3564;53.326;10.356;2024-02-28T00:00:05;9.10;99.90
7046;DHT22;3564;53.326;10.356;2024-02-28T00:02:31;9.10;99.90
7046;DHT22;3564;53.326;10.356;2024-02-28T00:04:56;9.10;99.90
7046;DHT22;3564;53.326;10.356;2024-02-28T00:07:24;9.10;99.90
7046;DHT22;3564;53.326;10.356;2024-02-28T00:09:50;9.10;99.90
7046;DHT22;3564;53.326;10.356;2024-02-28T00:12:16;9.10;99.90
7046;DHT22;3564;53.326;10.356;2024-02-28T00:14:44;9.10;99.90
7046;DHT22;3564;53.326;10.356;2024-02-28T00:17:12;9.00;99.90
7046;DHT22;3564;53.326;10.356;2024-02-28T00:19:37;9.10;99.90
7046;DHT22;3564;53.326;10.356;2024-02-28T00:22:03;9.10;99.90
7046;DHT22;3564;53.326;10.356;2024-02-28T00:24:28;9.10;99.90
7046;DHT22;3564;53.326;10.356;2024-02-28T00:26:58;9.10;99.90
7046;DHT22;3564;53.326;10.356;2024-02-28T00:29:26;9.10;99.90
7046;DHT22;3564;53.326;10.356;2024-02-28T00:31:52;9.10;99.90
7046;DHT22;3564;53.326;10.356;2024-02-28T00:34:18;9.00;99.90
7046;DHT22;3564;53.326;10.356;2024-02-28T00:36:43;9.00;99.90
7046;DHT22;3564;53.326;10.356;2024-02-28T00:39:15;9.00;99.90
7046;DHT22;3564;53.326;10.356;2024-02-28T00:41:40;9.00;99.90
7046;DHT22;3564;53.326;10.356;2024-02-28T00:44:06;9.00;99.90
7046;DHT22;3564;53.326;10.356;2024-02-28T00:46:32;9.00;99.90
7046;DHT22;3564;53.326;10.356;2024-02-28T00:48:57;8.90;99.90
7046;DHT22;3564;53.326;10.356;2024-02-28T00:51:23;8.90;99.90
7046;DHT22;3564;53.326;10.356;2024-02-28T00:53:49;8.90;99.90
7046;DHT22;3564;53.326;10.356;2024-02-28T00:56:15;8.90;99.90
7046;DHT22;3564;53.326;10.356;2024-02-28T00:58:46;8.90;99.90
7046;DHT22;3564;53.326;10.356;2024-02-28T01:01:12;8.90;99.90
7046;DHT22;3564;53.326;10.356;2024-02-28T01:03:37;8.90;99.90
7046;DHT22;3564;53.326;10.356;2024-02-28T01:06:03;8.80;99.90
7046;DHT22;3564;53.326;10.356;2024-02-28T01:08:29;8.80;99.90
7046;DHT22;3564;53.326;10.356;2024-02-28T01:10:55;8.80;99.90
7046;DHT22;3564;53.326;10.356;2024-02-28T01:13:21;8.80;99.90
7046;DHT22;3564;53.326;10.356;2024-02-28T01:15:46;8.70;99.90
7046;DHT22;3564;53.326;10.356;2024-02-28T01:18:12;8.70;99.90
7046;DHT22;3564;53.326;10.356;2024-02-28T01:20:41;8.70;99.90
7046;DHT22;3564;53.326;10.356;2024-02-28T01:23:06;8.70;99.90
7046;DHT22;3564;53.326;10.356;2024-02-28T01:25:32;8.70;99.90
7046;DHT22;3564;53.326;10.356;2024-02-28T01:27:57;8.80;99.90
7046;DHT22;3564;53.326;10.356;2024-02-28T01:30:24;8.70;99.90
7046;DHT22;3564;53.326;10.356;2024-02-28T01:32:49;8.70;99.90
7046;DHT22;3564;53.326;10.356;2024-02-28T01:35:18;8.70;99.90
7046;DHT22;3564;53.326;10.356;2024-02-28T01:37:43;8.70;99.90
7046;DHT22;3564;53.326;10.356;2024-02-28T01:40:09;8.60;99.90
7046;DHT22;3564;53.326;10.356;2024-02-28T01:42:35;8.60;99.90
7046;DHT22;3564;53.326;10.356;2024-02-28T01:45:01;8.60;99.90
7046;DHT22;3564;53.326;10.356;2024-02-28T01:47:27;8.70;99.90
7046;DHT22;3564;53.326;10.356;2024-02-28T01:49:56;8.60;99.90
7046;DHT22;3564;53.326;10.356;2024-02-28T01:52:22;8.60;99.90
7046;DHT22;3564;53.326;10.356;2024-02-28T01:54:51;8.60;99.90
7046;DHT22;3564;53.326;10.356;2024-02-28T01:57:19;8.50;99.90
7046;DHT22;3564;53.326;10.356;2024-02-28T01:59:45;8.50;99.90
7046;DHT22;3564;53.326;10.356;2024-02-28T02:02:15;8.50;99.90
7046;DHT22;3564;53.326;10.356;2024-02-28T02:04:43;8.50;99.90
7046;DHT22;3564;53.326;10.356;2024-02-28T02:07:09;8.40;99.90
7046;DHT22;3564;53.326;10.356;2024-02-28T02:09:34;8.40;99.90
7046;DHT22;3564;53.326;10.356;2024-02-28T02:12:00;8.40;99.90
7046;DHT22;3564;53.326;10.356;2024-02-28T02:14:26;8.40;99.90
7046;DHT22;3564;53.326;10.356;2024-02-28T02:16:52;8.40;99.90
7046;DHT22;3564;53.326;10.356;2024-02-28T02:19:17;8.40;99.90
7046;DHT22;3564;53.326;10.356;2024-02-28T02:21:58;8.30;99.90
7046;DHT22;3564;53.326;10.356;2024-02-28T02:24:27;8.30;99.90
7046;DHT22;3564;53.326;10.356;2024-02-28T02:26:57;8.30;99.90
7046;DHT22;3564;53.326;10.356;2024-02-28T02:29:23;8.30;99.90
7046;DHT22;3564;53.326;10.356;2024-02-28T02:31:49;8.30;99.90
7046;DHT22;3564;53.326;10.356;2024-02-28T02:34:14;8.30;99.90
7046;DHT22;3564;53.326;10.356;2024-02-28T02:36:40;8.40;99.90
7046;DHT22;3564;53.326;10.356;2024-02-28T02:39:05;8.40;99.90
7046;DHT22;3564;53.326;10.356;2024-02-28T02:41:34;8.30;99.90
7046;DHT22;3564;53.326;10.356;2024-02-28T02:44:00;8.30;99.90
7046;DHT22;3564;53.326;10.356;2024-02-28T02:46:25;8.30;99.90
7046;DHT22;3564;53.326;10.356;2024-02-28T02:48:51;8.30;99.90
7046;DHT22;3564;53.326;10.356;2024-02-28T02:51:19;8.20;99.90
7046;DHT22;3564;53.326;10.356;2024-02-28T02:53:47;8.20;99.90
7046;DHT22;3564;53.326;10.356;2024-02-28T02:56:13;8.20;99.90
7046;DHT22;3564;53.326;10.356;2024-02-28T02:58:39;8.20;99.90
7046;DHT22;3564;53.326;10.356;2024-02-28T03:01:04;8.20;99.90
7046;DHT22;3564;53.326;10.356;2024-02-28T03:03:30;8.20;99.90
7046;DHT22;3564;53.326;10.356;2024-02-28T03:05:56;8.20;99.90
7046;DHT22;3564;53.326;10.356;2024-02-28T03:08:21;8.20;99.90
7046;DHT22;3564;53.326;10.356;2024-02-28T03:10:47;8.20;99.90
7046;DHT22;3564;53.326;10.356;2024-02-28T03:13:12;8.20;99.90
7046;DHT22;3564;53.326;10.356;2024-02-28T03:15:38;8.10;99.90
7046;DHT22;3564;53.326;10.356;2024-02-28T03:18:07;8.10;99.90
7046;DHT22;3564;53.326;10.356;2024-02-28T03:20:32;8.00;99.90
7046;DHT22;3564;53.326;10.356;2024-02-28T03:22:58;8.00;99.90
7046;DHT22;3564;53.326;10.356;2024-02-28T03:25:33;8.00;99.90
7046;DHT22;3564;53.326;10.356;2024-02-28T03:28:02;8.00;99.90
7046;DHT22;3564;53.326;10.356;2024-02-28T03:30:28;7.90;99.90
7046;DHT22;3564;53.326;10.356;2024-02-28T03:32:53;7.90;99.90
7046;DHT22;3564;53.326;10.356;2024-02-28T03:35:19;7.90;99.90
7046;DHT22;3564;53.326;10.356;2024-02-28T03:37:45;7.90;99.90
7046;DHT22;3564;53.326;10.356;2024-02-28T03:40:11;7.90;99.90
7046;DHT22;3564;53.326;10.356;2024-02-28T03:42:37;7.90;99.90
7046;DHT22;3564;53.326;10.356;2024-02-28T03:45:03;8.00;99.90
7046;DHT22;3564;53.326;10.356;2024-02-28T03:47:32;8.00;99.90
7046;DHT22;3564;53.326;10.356;2024-02-28T03:49:58;8.00;99.90
7046;DHT22;3564;53.326;10.356;2024-02-28T03:52:24;8.00;99.90
7046;DHT22;3564;53.326;10.356;2024-02-28T03:54:50;8.00;99.90
7046;DHT22;3564;53.326;10.356;2024-02-28T03:57:16;8.00;99.90
7046;DHT22;3564;53.326;10.356;2024-02-28T03:59:41;8.00;99.90
7046;DHT22;3564;53.326;10.356;2024-02-28T04:02:07;8.00;99.90
7046;DHT22;3564;53.326;10.356;2024-02-28T04:04:36;8.00;99.90
7046;DHT22;3564;53.326;10.356;2024-02-28T04:07:01;8.00;99.90
7046;DHT22;3564;53.326;10.356;2024-02-28T04:09:27;8.00;99.90
7046;DHT22;3564;53.326;10.356;2024-02-28T04:11:53;8.10;99.90
7046;DHT22;3564;53.326;10.356;2024-02-28T04:14:25;8.10;99.90
7046;DHT22;3564;53.326;10.356;2024-02-28T04:16:50;8.10;99.90
7046;DHT22;3564;53.326;10.356;2024-02-28T04:19:16;8.10;99.90
7046;DHT22;3564;53.326;10.356;2024-02-28T04:21:42;8.10;99.90
7046;DHT22;3564;53.326;10.356;2024-02-28T04:24:08;8.10;99.90
7046;DHT22;3564;53.326;10.356;2024-02-28T04:26:34;8.10;99.90
7046;DHT22;3564;53.326;10.356;2024-02-28T04:29:00;8.10;99.90
7046;DHT22;3564;53.326;10.356;2024-02-28T04:31:28;8.10;99.90
7046;DHT22;3564;53.326;10.356;2024-02-28T04:33:54;8.10;99.90
7046;DHT22;3564;53.326;10.356;2024-02-28T04:36:22;8.10;99.90
7046;DHT22;3564;53.326;10.356;2024-02-28T04:38:48;8.10;99.90
7046;DHT22;3564;53.326;10.356;2024-02-28T04:41:13;8.10;99.90
7046;DHT22;3564;53.326;10.356;2024-02-28T04:43:40;8.10;99.90
7046;DHT22;3564;53.326;10.356;2024-02-28T04:46:08;8.10;99.90
7046;DHT22;3564;53.326;10.356;2024-02-28T04:48:34;8.10;99.90
7046;DHT22;3564;53.326;10.356;2024-02-28T04:51:00;8.10;99.90
7046;DHT22;3564;53.326;10.356;2024-02-28T04:53:26;8.10;99.90
7046;DHT22;3564;53.326;10.356;2024-02-28T04:55:51;8.10;99.90
7046;DHT22;3564;53.326;10.356;2024-02-28T04:58:17;8.10;99.90
7046;DHT22;3564;53.326;10.356;2024-02-28T05:00:42;8.10;99.90
7046;DHT22;3564;53.326;10.356;2024-02-28T05:03:08;8.00;99.90
7046;DHT22;3564;53.326;10.356;2024-02-28T05:05:34;8.00;99.90
7046;DHT22;3564;53.326;10.356;2024-02-28T05:07:59;8.00;99.90
7046;DHT22;3564;53.326;10.356;2024-02-28T05:10:25;8.00;99.90
7046;DHT22;3564;53.326;10.356;2024-02-28T05:12:53;7.90;99.90
7046;DHT22;3564;53.326;10.356;2024-02-28T05:15:19;7.90;99.90
7046;DHT22;3564;53.326;10.356;2024-02-28T05:17:45;7.90;99.90
7046;DHT22;3564;53.326;10.356;2024-02-28T05:20:11;7.90;99.90
7046;DHT22;3564;53.326;10.356;2024-02-28T05:22:40;8.00;99.90
7046;DHT22;3564;53.326;10.356;2024-02-28T05:25:08;8.00;99.90
7046;DHT22;3564;53.326;10.356;2024-02-28T05:27:33;8.00;99.90
7046;DHT22;3564;53.326;10.356;2024-02-28T05:29:59;8.00;99.90
7046;DHT22;3564;53.326;10.356;2024-02-28T05:32:26;8.00;99.90
7046;DHT22;3564;53.326;10.356;2024-02-28T05:34:55;8.10;99.90
7046;DHT22;3564;53.326;10.356;2024-02-28T05:37:23;8.10;99.90
7046;DHT22;3564;53.326;10.356;2024-02-28T05:39:53;8.00;99.90
7046;DHT22;3564;53.326;10.356;2024-02-28T05:42:18;8.00;99.90
7046;DHT22;3564;53.326;10.356;2024-02-28T05:44:50;8.00;99.90
7046;DHT22;3564;53.326;10.356;2024-02-28T05:47:16;8.00;99.90
7046;DHT22;3564;53.326;10.356;2024-02-28T05:49:41;8.10;99.90
7046;DHT22;3564;53.326;10.356;2024-02-28T05:52:10;8.10;99.90
7046;DHT22;3564;53.326;10.356;2024-02-28T05:54:40;8.00;99.90
7046;DHT22;3564;53.326;10.356;2024-02-28T05:57:05;8.00;99.90
7046;DHT22;3564;53.326;10.356;2024-02-28T05:59:31;8.00;99.90
7046;DHT22;3564;53.326;10.356;2024-02-28T06:01:57;8.00;99.90
7046;DHT22;3564;53.326;10.356;2024-02-28T06:04:25;8.00;99.90
7046;DHT22;3564;53.326;10.356;2024-02-28T06:06:51;8.00;99.90
7046;DHT22;3564;53.326;10.356;2024-02-28T06:09:16;8.00;99.90
7046;DHT22;3564;53.326;10.356;2024-02-28T06:11:42;8.00;99.90
7046;DHT22;3564;53.326;10.356;2024-02-28T06:14:07;8.00;99.90
7046;DHT22;3564;53.326;10.356;2024-02-28T06:16:37;8.00;99.90
7046;DHT22;3564;53.326;10.356;2024-02-28T06:19:06;8.00;99.90
7046;DHT22;3564;53.326;10.356;2024-02-28T06:21:34;8.00;99.90
7046;DHT22;3564;53.326;10.356;2024-02-28T06:24:00;8.00;99.90
7046;DHT22;3564;53.326;10.356;2024-02-28T06:26:28;8.00;99.90
7046;DHT22;3564;53.326;10.356;2024-02-28T06:28:59;7.90;99.90
7046;DHT22;3564;53.326;10.356;2024-02-28T06:31:27;8.00;99.90
7046;DHT22;3564;53.326;10.356;2024-02-28T06:33:57;7.90;99.90
7046;DHT22;3564;53.326;10.356;2024-02-28T06:36:22;7.90;99.90
7046;DHT22;3564;53.326;10.356;2024-02-28T06:38:48;7.90;99.90
7046;DHT22;3564;53.326;10.356;2024-02-28T06:41:16;7.90;99.90
7046;DHT22;3564;53.326;10.356;2024-02-28T06:43:42;7.80;99.90
7046;DHT22;3564;53.326;10.356;2024-02-28T06:46:11;7.80;99.90
7046;DHT22;3564;53.326;10.356;2024-02-28T06:48:37;7.90;99.90
7046;DHT22;3564;53.326;10.356;2024-02-28T06:51:11;7.90;99.90
7046;DHT22;3564;53.326;10.356;2024-02-28T06:53:37;7.90;99.90
7046;DHT22;3564;53.326;10.356;2024-02-28T06:56:05;7.80;99.90
7046;DHT22;3564;53.326;10.356;2024-02-28T06:58:31;7.80;99.90
7046;DHT22;3564;53.326;10.356;2024-02-28T07:00:57;7.90;99.90
7046;DHT22;3564;53.326;10.356;2024-02-28T07:03:22;7.90;99.90
7046;DHT22;3564;53.326;10.356;2024-02-28T07:05:48;7.90;99.90
7046;DHT22;3564;53.326;10.356;2024-02-28T07:08:17;7.90;99.90
7046;DHT22;3564;53.326;10.356;2024-02-28T07:10:45;7.90;99.90
7046;DHT22;3564;53.326;10.356;2024-02-28T07:13:14;8.00;99.90
7046;DHT22;3564;53.326;10.356;2024-02-28T07:15:40;8.00;99.90
7046;DHT22;3564;53.326;10.356;2024-02-28T07:18:10;7.90;99.90
7046;DHT22;3564;53.326;10.356;2024-02-28T07:20:35;7.90;99.90
7046;DHT22;3564;53.326;10.356;2024-02-28T07:23:01;7.90;99.90
7046;DHT22;3564;53.326;10.356;2024-02-28T07:25:26;7.90;99.90
7046;DHT22;3564;53.326;10.356;2024-02-28T07:27:52;7.90;99.90
7046;DHT22;3564;53.326;10.356;2024-02-28T07:30:18;7.90;99.90
7046;DHT22;3564;53.326;10.356;2024-02-28T07:32:43;8.00;99.90
7046;DHT22;3564;53.326;10.356;2024-02-28T07:35:09;8.00;99.90
7046;DHT22;3564;53.326;10.356;2024-02-28T07:37:37;8.00;99.90
7046;DHT22;3564;53.326;10.356;2024-02-28T07:40:04;8.00;99.90
7046;DHT22;3564;53.326;10.356;2024-02-28T07:42:33;8.10;99.90
7046;DHT22;3564;53.326;10.356;2024-02-28T07:44:58;8.10;99.90
7046;DHT22;3564;53.326;10.356;2024-02-28T07:47:27;8.10;99.90
7046;DHT22;3564;53.326;10.356;2024-02-28T07:49:52;8.10;99.90
7046;DHT22;3564;53.326;10.356;2024-02-28T07:52:22;8.20;99.90
7046;DHT22;3564;53.326;10.356;2024-02-28T07:54:47;8.10;99.90
7046;DHT22;3564;53.326;10.356;2024-02-28T07:57:14;8.10;99.90
7046;DHT22;3564;53.326;10.356;2024-02-28T07:59:43;8.20;99.90
7046;DHT22;3564;53.326;10.356;2024-02-28T08:02:09;8.20;99.90
7046;DHT22;3564;53.326;10.356;2024-02-28T08:04:37;8.20;99.90
7046;DHT22;3564;53.326;10.356;2024-02-28T08:07:08;8.30;99.90
7046;DHT22;3564;53.326;10.356;2024-02-28T08:09:34;8.30;99.90
7046;DHT22;3564;53.326;10.356;2024-02-28T08:11:59;8.30;99.90
7046;DHT22;3564;53.326;10.356;2024-02-28T08:14:26;8.40;99.90
7046;DHT22;3564;53.326;10.356;2024-02-28T08:16:52;8.40;99.90
7046;DHT22;3564;53.326;10.356;2024-02-28T08:19:17;8.40;99.90
7046;DHT22;3564;53.326;10.356;2024-02-28T08:21:43;8.40;99.90
7046;DHT22;3564;53.326;10.356;2024-02-28T08:24:09;8.40;99.90
7046;DHT22;3564;53.326;10.356;2024-02-28T08:26:35;8.40;99.90
7046;DHT22;3564;53.326;10.356;2024-02-28T08:29:01;8.40;99.90
7046;DHT22;3564;53.326;10.356;2024-02-28T08:31:27;8.40;99.90
7046;DHT22;3564;53.326;10.356;2024-02-28T08:33:53;8.50;99.90
7046;DHT22;3564;53.326;10.356;2024-02-28T08:36:20;8.50;99.90
7046;DHT22;3564;53.326;10.356;2024-02-28T08:38:46;8.50;99.90
7046;DHT22;3564;53.326;10.356;2024-02-28T08:41:12;8.50;99.90
7046;DHT22;3564;53.326;10.356;2024-02-28T08:43:39;8.50;99.90
7046;DHT22;3564;53.326;10.356;2024-02-28T08:46:04;8.50;99.90
7046;DHT22;3564;53.326;10.356;2024-02-28T08:48:30;8.40;99.90
7046;DHT22;3564;53.326;10.356;2024-02-28T08:50:56;8.40;99.90
7046;DHT22;3564;53.326;10.356;2024-02-28T08:53:24;8.50;99.90
7046;DHT22;3564;53.326;10.356;2024-02-28T08:55:53;8.50;99.90
7046;DHT22;3564;53.326;10.356;2024-02-28T08:58:18;8.50;99.90
7046;DHT22;3564;53.326;10.356;2024-02-28T09:00:44;8.60;99.90
7046;DHT22;3564;53.326;10.356;2024-02-28T09:03:15;8.60;99.90
7046;DHT22;3564;53.326;10.356;2024-02-28T09:05:41;8.60;99.90
7046;DHT22;3564;53.326;10.356;2024-02-28T09:08:07;8.60;99.90
7046;DHT22;3564;53.326;10.356;2024-02-28T09:10:32;8.60;99.90
7046;DHT22;3564;53.326;10.356;2024-02-28T09:12:59;8.60;99.90
7046;DHT22;3564;53.326;10.356;2024-02-28T09:15:25;8.70;99.90
7046;DHT22;3564;53.326;10.356;2024-02-28T09:17:51;8.70;99.90
7046;DHT22;3564;53.326;10.356;2024-02-28T09:20:17;8.70;99.90
7046;DHT22;3564;53.326;10.356;2024-02-28T09:22:43;8.80;99.90
7046;DHT22;3564;53.326;10.356;2024-02-28T09:25:09;8.80;99.90
7046;DHT22;3564;53.326;10.356;2024-02-28T09:27:37;8.90;99.90
7046;DHT22;3564;53.326;10.356;2024-02-28T09:30:09;8.90;99.90
7046;DHT22;3564;53.326;10.356;2024-02-28T09:32:38;8.90;99.90
7046;DHT22;3564;53.326;10.356;2024-02-28T09:35:04;9.00;99.90
7046;DHT22;3564;53.326;10.356;2024-02-28T09:37:33;9.00;99.90
7046;DHT22;3564;53.326;10.356;2024-02-28T09:39:58;9.00;99.90
7046;DHT22;3564;53.326;10.356;2024-02-28T09:42:24;9.10;99.90
7046;DHT22;3564;53.326;10.356;2024-02-28T09:44:50;9.10;99.90
7046;DHT22;3564;53.326;10.356;2024-02-28T09:47:19;9.10;99.90
7046;DHT22;3564;53.326;10.356;2024-02-28T09:49:45;9.20;99.90
7046;DHT22;3564;53.326;10.356;2024-02-28T09:52:25;9.20;99.90
7046;DHT22;3564;53.326;10.356;2024-02-28T09:54:56;9.20;99.90
7046;DHT22;3564;53.326;10.356;2024-02-28T09:57:29;9.30;99.90
7046;DHT22;3564;53.326;10.356;2024-02-28T10:00:00;9.40;99.90
7046;DHT22;3564;53.326;10.356;2024-02-28T10:02:26;9.30;99.90
7046;DHT22;3564;53.326;10.356;2024-02-28T10:04:56;9.40;99.90
7046;DHT22;3564;53.326;10.356;2024-02-28T10:07:23;9.40;99.90
7046;DHT22;3564;53.326;10.356;2024-02-28T10:09:49;9.50;99.90
7046;DHT22;3564;53.326;10.356;2024-02-28T10:12:14;9.60;99.90
7046;DHT22;3564;53.326;10.356;2024-02-28T10:14:40;9.60;99.90
7046;DHT22;3564;53.326;10.356;2024-02-28T10:17:06;9.70;99.90
7046;DHT22;3564;53.326;10.356;2024-02-28T10:19:33;9.80;99.90
7046;DHT22;3564;53.326;10.356;2024-02-28T10:22:02;9.80;99.90
7046;DHT22;3564;53.326;10.356;2024-02-28T10:24:28;9.80;99.90
7046;DHT22;3564;53.326;10.356;2024-02-28T10:26:53;9.90;99.90
7046;DHT22;3564;53.326;10.356;2024-02-28T10:29:25;9.90;99.90
7046;DHT22;3564;53.326;10.356;2024-02-28T10:31:55;10.00;99.90
7046;DHT22;3564;53.326;10.356;2024-02-28T10:34:24;10.10;99.90
7046;DHT22;3564;53.326;10.356;2024-02-28T10:36:56;10.20;99.90
7046;DHT22;3564;53.326;10.356;2024-02-28T10:39:22;10.20;99.90
7046;DHT22;3564;53.326;10.356;2024-02-28T10:41:50;10.30;99.90
7046;DHT22;3564;53.326;10.356;2024-02-28T10:44:18;10.30;99.90
7046;DHT22;3564;53.326;10.356;2024-02-28T10:46:49;10.40;99.90
7046;DHT22;3564;53.326;10.356;2024-02-28T10:49:15;10.40;99.90
7046;DHT22;3564;53.326;10.356;2024-02-28T10:51:45;10.50;99.90
7046;DHT22;3564;53.326;10.356;2024-02-28T10:54:12;10.50;99.90
7046;DHT22;3564;53.326;10.356;2024-02-28T10:56:44;10.50;99.90
7046;DHT22;3564;53.326;10.356;2024-02-28T10:59:11;10.50;99.90
7046;DHT22;3564;53.326;10.356;2024-02-28T11:01:46;10.50;99.90
7046;DHT22;3564;53.326;10.356;2024-02-28T11:04:14;10.60;99.90
7046;DHT22;3564;53.326;10.356;2024-02-28T11:06:48;10.70;99.90
7046;DHT22;3564;53.326;10.356;2024-02-28T11:09:19;10.70;99.90
7046;DHT22;3564;53.326;10.356;2024-02-28T11:11:56;10.70;99.90
7046;DHT22;3564;53.326;10.356;2024-02-28T11:14:22;10.80;99.90
7046;DHT22;3564;53.326;10.356;2024-02-28T11:17:08;10.80;99.90
7046;DHT22;3564;53.326;10.356;2024-02-28T11:19:36;10.90;99.90
7046;DHT22;3564;53.326;10.356;2024-02-28T11:22:02;10.90;99.90
7046;DHT22;3564;53.326;10.356;2024-02-28T11:24:31;11.00;99.90
7046;DHT22;3564;53.326;10.356;2024-02-28T11:26:57;11.00;99.90
7046;DHT22;3564;53.326;10.356;2024-02-28T11:29:27;11.10;99.90
7046;DHT22;3564;53.326;10.356;2024-02-28T11:32:05;11.20;99.90
7046;DHT22;3564;53.326;10.356;2024-02-28T11:34:31;11.30;99.90
7046;DHT22;3564;53.326;10.356;2024-02-28T11:36:56;11.40;99.90
7046;DHT22;3564;53.326;10.356;2024-02-28T11:39:24;11.40;99.90
7046;DHT22;3564;53.326;10.356;2024-02-28T11:41:53;11.50;99.90
7046;DHT22;3564;53.326;10.356;2024-02-28T11:44:19;11.60;99.90
7046;DHT22;3564;53.326;10.356;2024-02-28T11:46:51;11.70;99.90
7046;DHT22;3564;53.326;10.356;2024-02-28T11:49:17;11.80;99.90
7046;DHT22;3564;53.326;10.356;2024-02-28T11:51:44;11.80;99.90
7046;DHT22;3564;53.326;10.356;2024-02-28T11:54:10;11.80;99.90
7046;DHT22;3564;53.326;10.356;2024-02-28T11:56:41;11.90;99.90
7046;DHT22;3564;53.326;10.356;2024-02-28T11:59:08;11.90;99.90
7046;DHT22;3564;53.326;10.356;2024-02-28T12:01:40;12.00;99.90
7046;DHT22;3564;53.326;10.356;2024-02-28T12:04:06;11.90;99.90
7046;DHT22;3564;53.326;10.356;2024-02-28T12:06:36;12.00;99.90
7046;DHT22;3564;53.326;10.356;2024-02-28T12:09:04;12.00;99.90
7046;DHT22;3564;53.326;10.356;2024-02-28T12:11:31;12.00;99.90
7046;DHT22;3564;53.326;10.356;2024-02-28T12:14:10;12.10;99.90
7046;DHT22;3564;53.326;10.356;2024-02-28T12:16:38;12.10;99.90
7046;DHT22;3564;53.326;10.356;2024-02-28T12:19:14;12.10;99.90
7046;DHT22;3564;53.326;10.356;2024-02-28T12:21:41;12.20;99.90
7046;DHT22;3564;53.326;10.356;2024-02-28T12:24:08;12.20;99.90
7046;DHT22;3564;53.326;10.356;2024-02-28T12:26:35;12.20;99.90
7046;DHT22;3564;53.326;10.356;2024-02-28T12:29:03;12.20;99.90
7046;DHT22;3564;53.326;10.356;2024-02-28T12:31:29;12.30;99.90
7046;DHT22;3564;53.326;10.356;2024-02-28T12:33:54;12.40;99.90
7046;DHT22;3564;53.326;10.356;2024-02-28T12:36:20;12.40;99.90
7046;DHT22;3564;53.326;10.356;2024-02-28T12:38:46;12.40;99.90
7046;DHT22;3564;53.326;10.356;2024-02-28T12:41:12;12.40;99.90
7046;DHT22;3564;53.326;10.356;2024-02-28T12:43:38;12.40;99.90
7046;DHT22;3564;53.326;10.356;2024-02-28T12:46:07;12.30;99.90
7046;DHT22;3564;53.326;10.356;2024-02-28T12:48:37;12.30;99.90
7046;DHT22;3564;53.326;10.356;2024-02-28T12:51:04;12.30;99.90
7046;DHT22;3564;53.326;10.356;2024-02-28T12:53:34;12.30;99.90
7046;DHT22;3564;53.326;10.356;2024-02-28T12:56:00;12.30;99.90
7046;DHT22;3564;53.326;10.356;2024-02-28T12:58:25;12.30;99.90
7046;DHT22;3564;53.326;10.356;2024-02-28T13:00:51;12.40;99.90
7046;DHT22;3564;53.326;10.356;2024-02-28T13:03:17;12.40;99.90
7046;DHT22;3564;53.326;10.356;2024-02-28T13:05:43;12.40;99.90
7046;DHT22;3564;53.326;10.356;2024-02-28T13:08:12;12.40;99.90
7046;DHT22;3564;53.326;10.356;2024-02-28T13:10:37;12.40;99.90
7046;DHT22;3564;53.326;10.356;2024-02-28T13:13:06;12.40;99.90
7046;DHT22;3564;53.326;10.356;2024-02-28T13:15:32;12.40;99.90
7046;DHT22;3564;53.326;10.356;2024-02-28T13:17:58;12.40;99.90
7046;DHT22;3564;53.326;10.356;2024-02-28T13:20:24;12.40;99.90
7046;DHT22;3564;53.326;10.356;2024-02-28T13:22:50;12.40;99.90
7046;DHT22;3564;53.326;10.356;2024-02-28T13:25:16;12.40;99.90
7046;DHT22;3564;53.326;10.356;2024-02-28T13:27:47;12.40;99.90
7046;DHT22;3564;53.326;10.356;2024-02-28T13:30:14;12.40;99.90
7046;DHT22;3564;53.326;10.356;2024-02-28T13:32:46;12.40;99.90
7046;DHT22;3564;53.326;10.356;2024-02-28T13:35:18;12.40;99.90
7046;DHT22;3564;53.326;10.356;2024-02-28T13:37:50;12.40;99.90
7046;DHT22;3564;53.326;10.356;2024-02-28T13:40:16;12.40;99.90
7046;DHT22;3564;53.326;10.356;2024-02-28T13:42:42;12.40;99.90
7046;DHT22;3564;53.326;10.356;2024-02-28T13:45:08;12.40;99.90
7046;DHT22;3564;53.326;10.356;2024-02-28T13:47:38;12.40;99.90
7046;DHT22;3564;53.326;10.356;2024-02-28T13:50:04;12.40;99.90
7046;DHT22;3564;53.326;10.356;2024-02-28T13:52:30;12.40;99.90
7046;DHT22;3564;53.326;10.356;2024-02-28T13:54:58;12.40;99.90
7046;DHT22;3564;53.326;10.356;2024-02-28T13:57:24;12.40;99.90
7046;DHT22;3564;53.326;10.356;2024-02-28T13:59:49;12.40;99.90
7046;DHT22;3564;53.326;10.356;2024-02-28T14:02:18;12.50;99.90
7046;DHT22;3564;53.326;10.356;2024-02-28T14:04:44;12.50;99.90
7046;DHT22;3564;53.326;10.356;2024-02-28T14:07:16;12.60;99.90
7046;DHT22;3564;53.326;10.356;2024-02-28T14:09:45;12.70;99.90
7046;DHT22;3564;53.326;10.356;2024-02-28T14:12:11;12.60;99.90
7046;DHT22;3564;53.326;10.356;2024-02-28T14:14:37;12.70;99.90
7046;DHT22;3564;53.326;10.356;2024-02-28T14:17:05;12.70;99.90
7046;DHT22;3564;53.326;10.356;2024-02-28T14:19:30;12.70;99.90
7046;DHT22;3564;53.326;10.356;2024-02-28T14:21:56;12.80;99.90
7046;DHT22;3564;53.326;10.356;2024-02-28T14:24:22;12.70;99.90
7046;DHT22;3564;53.326;10.356;2024-02-28T14:26:50;12.70;99.90
7046;DHT22;3564;53.326;10.356;2024-02-28T14:29:19;12.60;99.90
7046;DHT22;3564;53.326;10.356;2024-02-28T14:31:45;12.60;99.90
7046;DHT22;3564;53.326;10.356;2024-02-28T14:34:11;12.70;99.90
7046;DHT22;3564;53.326;10.356;2024-02-28T14:36:36;12.80;99.90
7046;DHT22;3564;53.326;10.356;2024-02-28T14:39:02;12.80;99.90
7046;DHT22;3564;53.326;10.356;2024-02-28T14:41:28;12.90;99.90
7046;DHT22;3564;53.326;10.356;2024-02-28T14:43:54;13.00;99.90
7046;DHT22;3564;53.326;10.356;2024-02-28T14:46:20;13.10;99.90
7046;DHT22;3564;53.326;10.356;2024-02-28T14:48:47;13.10;99.90
7046;DHT22;3564;53.326;10.356;2024-02-28T14:51:18;13.20;99.90
7046;DHT22;3564;53.326;10.356;2024-02-28T14:53:45;13.20;99.90
7046;DHT22;3564;53.326;10.356;2024-02-28T14:56:11;13.20;99.90
7046;DHT22;3564;53.326;10.356;2024-02-28T14:58:36;13.10;99.90
7046;DHT22;3564;53.326;10.356;2024-02-28T15:01:03;13.10;99.90
7046;DHT22;3564;53.326;10.356;2024-02-28T15:03:30;13.00;99.90
7046;DHT22;3564;53.326;10.356;2024-02-28T15:05:56;12.90;99.90
7046;DHT22;3564;53.326;10.356;2024-02-28T15:08:21;12.90;99.90
7046;DHT22;3564;53.326;10.356;2024-02-28T15:10:47;12.80;99.90
7046;DHT22;3564;53.326;10.356;2024-02-28T15:13:13;12.80;99.90
7046;DHT22;3564;53.326;10.356;2024-02-28T15:15:38;12.70;99.90
7046;DHT22;3564;53.326;10.356;2024-02-28T15:18:04;12.70;99.90
7046;DHT22;3564;53.326;10.356;2024-02-28T15:20:30;12.70;99.90
7046;DHT22;3564;53.326;10.356;2024-02-28T15:22:55;12.60;99.90
7046;DHT22;3564;53.326;10.356;2024-02-28T15:25:21;12.60;99.90
7046;DHT22;3564;53.326;10.356;2024-02-28T15:27:47;12.50;99.90
7046;DHT22;3564;53.326;10.356;2024-02-28T15:30:13;12.50;99.90
7046;DHT22;3564;53.326;10.356;2024-02-28T15:32:41;12.50;99.90
7046;DHT22;3564;53.326;10.356;2024-02-28T15:35:10;12.50;99.90
7046;DHT22;3564;53.326;10.356;2024-02-28T15:37:37;12.40;99.90
7046;DHT22;3564;53.326;10.356;2024-02-28T15:40:03;12.40;99.90
7046;DHT22;3564;53.326;10.356;2024-02-28T15:42:34;12.40;99.90
7046;DHT22;3564;53.326;10.356;2024-02-28T15:45:00;12.40;99.90
7046;DHT22;3564;53.326;10.356;2024-02-28T15:47:26;12.30;99.90
7046;DHT22;3564;53.326;10.356;2024-02-28T15:49:54;12.30;99.90
7046;DHT22;3564;53.326;10.356;2024-02-28T15:52:20;12.30;99.90
7046;DHT22;3564;53.326;10.356;2024-02-28T15:54:52;12.30;99.90